Terminal Aerodrome Forecast
Issued by NWS

Home | Current Version | Previous Version | Text Only | Print | Product List | Glossary On
Versions: 1 2 3 4 5 6 7 8 9 10 11 12 13
000
FTUS43 KOAX 041808 CCA
TAFBFF
TAF COR
KBFF 041808Z 0418/0518 27012G19KT P6SM SCT250
     FM050100 19009KT P6SM SCT200
     FM050900 24008KT P6SM BKN100=

USA.gov is the U.S. government's official web portal to all federal, state and local government web resources and services.